createdAt,value
2023-05-05T00:02:01.804Z,100401.66
2023-05-05T00:06:05.406Z,100397.44
2023-05-05T00:10:10.626Z,100406.56
2023-05-05T00:14:13.941Z,100403.69
2023-05-05T00:18:17.637Z,100404.75
2023-05-05T00:22:20.610Z,100415.47
2023-05-05T00:26:24.856Z,100407.03
2023-05-05T00:30:28.987Z,100418.22
2023-05-05T00:34:31.930Z,100400.88
2023-05-05T00:38:35.749Z,100406.94
2023-05-05T00:42:44.088Z,100408.66
2023-05-05T00:46:47.043Z,100409.50
2023-05-05T00:50:50.237Z,100414.78
2023-05-05T00:54:54.556Z,100414.19
2023-05-05T00:58:59.247Z,100405.91
2023-05-05T01:03:02.352Z,100408.03
2023-05-05T01:07:14.800Z,100409.06
2023-05-05T01:11:19.897Z,100425.66
2023-05-05T01:15:30.655Z,100432.78
2023-05-05T01:19:47.995Z,100443.69
2023-05-05T01:24:03.542Z,100438.00
2023-05-05T01:28:18.157Z,100436.34
2023-05-05T01:32:26.693Z,100435.34
2023-05-05T01:36:33.688Z,100440.59
2023-05-05T01:40:39.024Z,100461.19
2023-05-05T01:44:43.420Z,100453.03
2023-05-05T01:48:49.223Z,100455.97
2023-05-05T01:52:52.676Z,100467.41
2023-05-05T01:56:57.346Z,100469.38
2023-05-05T02:01:01.642Z,100473.53
2023-05-05T02:05:06.789Z,100482.59
2023-05-05T02:09:11.801Z,100480.63
2023-05-05T02:13:15.519Z,100492.56
2023-05-05T02:17:19.676Z,100484.69
2023-05-05T02:21:24.091Z,100495.00
2023-05-05T02:25:32.402Z,100490.00
2023-05-05T02:29:36.678Z,100498.81
2023-05-05T02:33:41.427Z,100495.63
2023-05-05T02:37:49.482Z,100490.00
2023-05-05T02:41:55.275Z,100493.25
2023-05-05T02:46:02.134Z,100494.94
2023-05-05T02:50:07.623Z,100491.16
2023-05-05T02:54:14.624Z,100499.44
2023-05-05T02:58:23.106Z,100517.88
2023-05-05T03:02:33.148Z,100522.78
2023-05-05T03:06:38.157Z,100521.56
2023-05-05T03:10:45.375Z,100528.66
2023-05-05T03:14:49.750Z,100528.00
2023-05-05T03:18:53.902Z,100522.81
2023-05-05T03:22:57.516Z,100533.56
2023-05-05T03:27:01.951Z,100544.06
2023-05-05T03:31:10.242Z,100552.06
2023-05-05T03:35:14.698Z,100565.84
2023-05-05T03:39:18.817Z,100567.34
2023-05-05T03:43:23.982Z,100585.22
2023-05-05T03:47:27.021Z,100587.50
2023-05-05T03:51:31.668Z,100574.34
2023-05-05T03:55:35.775Z,100585.81
2023-05-05T03:59:40.101Z,100582.63
2023-05-05T04:03:43.561Z,100584.13
2023-05-05T04:07:47.071Z,100581.34
2023-05-05T04:11:51.630Z,100580.19
2023-05-05T04:15:56.969Z,100588.06
2023-05-05T04:20:00.050Z,100599.28
2023-05-05T04:24:03.418Z,100605.69
2023-05-05T04:28:06.930Z,100600.75
2023-05-05T04:32:11.428Z,100601.03
2023-05-05T04:36:14.520Z,100604.16
2023-05-05T04:40:17.898Z,100599.50
2023-05-05T04:44:20.862Z,100614.16
2023-05-05T04:48:25.545Z,100614.22
2023-05-05T04:52:28.636Z,100614.00
2023-05-05T04:56:32.220Z,100607.31
2023-05-05T05:00:36.617Z,100609.50
2023-05-05T05:04:41.379Z,100610.97
2023-05-05T05:08:44.526Z,100611.72
2023-05-05T05:12:48.718Z,100614.28
2023-05-05T05:16:52.594Z,100617.31
2023-05-05T05:20:59.746Z,100611.75
2023-05-05T05:25:02.726Z,100613.47
2023-05-05T05:29:06.253Z,100606.56
2023-05-05T05:33:09.360Z,100607.53
2023-05-05T05:37:14.106Z,100598.91
2023-05-05T05:41:17.963Z,100593.06
2023-05-05T05:45:21.818Z,100594.41
2023-05-05T05:49:24.966Z,100577.16
2023-05-05T05:53:29.869Z,100577.38
2023-05-05T05:57:32.855Z,100586.97
2023-05-05T06:01:36.340Z,100580.88
2023-05-05T06:05:40.105Z,100577.69
2023-05-05T06:09:44.604Z,100579.78
2023-05-05T06:13:47.748Z,100584.16
2023-05-05T06:17:51.277Z,100578.81
2023-05-05T06:21:54.369Z,100589.38
2023-05-05T06:25:58.903Z,100592.28
2023-05-05T06:30:01.802Z,100602.41
2023-05-05T06:34:04.808Z,100602.00
2023-05-05T06:38:07.685Z,100600.88
2023-05-05T06:42:11.930Z,100601.78
2023-05-05T06:46:15.111Z,100607.97
2023-05-05T06:50:18.048Z,100606.97
2023-05-05T06:54:20.911Z,100606.41
2023-05-05T06:58:25.302Z,100608.16
2023-05-05T07:02:28.225Z,100611.78
2023-05-05T07:06:31.944Z,100606.09
2023-05-05T07:10:35.026Z,100601.88
2023-05-05T07:14:39.713Z,100604.44
2023-05-05T07:18:42.771Z,100608.59
2023-05-05T07:22:45.833Z,100621.78
2023-05-05T07:26:48.938Z,100622.94
2023-05-05T07:30:53.264Z,100626.28
2023-05-05T07:34:56.206Z,100623.00
2023-05-05T07:38:59.167Z,100612.56
2023-05-05T07:43:02.366Z,100613.09
2023-05-05T07:47:06.656Z,100616.97
2023-05-05T07:51:09.799Z,100619.19
2023-05-05T07:55:12.686Z,100621.13
2023-05-05T07:59:15.623Z,100619.84
2023-05-05T08:03:21.782Z,100617.94
2023-05-05T08:07:24.775Z,100629.91
2023-05-05T08:11:29.490Z,100615.88
2023-05-05T08:15:32.512Z,100609.78
2023-05-05T08:19:36.830Z,100618.75
2023-05-05T08:23:40.388Z,100607.91
2023-05-05T08:27:44.102Z,100615.56
2023-05-05T08:31:47.031Z,100622.00
2023-05-05T08:35:51.249Z,100631.22
2023-05-05T08:39:54.224Z,100617.91
2023-05-05T08:43:57.173Z,100621.19
2023-05-05T08:48:02.102Z,100618.50
2023-05-05T08:52:10.472Z,100621.78
2023-05-05T08:56:14.485Z,100617.41
2023-05-05T09:00:19.207Z,100628.31
2023-05-05T09:04:22.747Z,100627.38
2023-05-05T09:08:27.414Z,100632.56
2023-05-05T09:12:31.760Z,100623.66
2023-05-05T09:16:35.025Z,100632.31
2023-05-05T09:20:38.651Z,100629.75
2023-05-05T09:24:55.549Z,100640.31
2023-05-05T09:28:58.430Z,100634.91
2023-05-05T09:33:02.308Z,100642.31
2023-05-05T09:37:06.233Z,100647.84
2023-05-05T09:41:10.687Z,100642.44
2023-05-05T09:45:25.904Z,100640.69
2023-05-05T09:49:29.213Z,100643.72
2023-05-05T09:53:39.507Z,100645.09
2023-05-05T09:57:43.719Z,100634.56
2023-05-05T10:01:46.745Z,100620.66
2023-05-05T10:05:51.802Z,100623.66
2023-05-05T10:09:54.916Z,100612.88
2023-05-05T10:13:59.421Z,100614.22
2023-05-05T10:18:08.187Z,100613.34
2023-05-05T10:22:11.648Z,100615.03
2023-05-05T10:26:15.335Z,100617.09
2023-05-05T10:30:23.576Z,100616.53
2023-05-05T10:34:30.420Z,100608.19
2023-05-05T10:38:33.742Z,100610.41
2023-05-05T10:42:38.076Z,100618.16
2023-05-05T10:46:42.881Z,100608.41
2023-05-05T10:50:51.209Z,100610.06
2023-05-05T10:54:58.758Z,100609.44
2023-05-05T10:59:02.871Z,100613.78
2023-05-05T11:03:23.290Z,100614.28
2023-05-05T11:07:27.475Z,100596.66
2023-05-05T11:11:45.253Z,100598.16
2023-05-05T11:15:48.616Z,100617.78
2023-05-05T11:19:54.929Z,100616.94
2023-05-05T11:24:17.816Z,100619.34
2023-05-05T11:28:23.292Z,100617.03
2023-05-05T11:32:26.241Z,100615.09
2023-05-05T11:36:41.372Z,100595.78
2023-05-05T11:40:46.576Z,100579.97
2023-05-05T11:44:49.971Z,100574.22
2023-05-05T11:48:53.009Z,100569.22
2023-05-05T11:52:57.568Z,100565.03
2023-05-05T11:57:02.120Z,100578.41
2023-05-05T12:01:06.279Z,100567.84
2023-05-05T12:05:09.333Z,100583.28
2023-05-05T12:09:16.781Z,100581.91
2023-05-05T12:13:20.248Z,100584.16
2023-05-05T12:17:24.520Z,100575.00
2023-05-05T12:21:27.708Z,100571.66
2023-05-05T12:25:38.451Z,100571.19
2023-05-05T12:29:41.323Z,100567.28
2023-05-05T12:33:44.466Z,100565.03
2023-05-05T12:37:47.320Z,100545.72
2023-05-05T12:41:51.716Z,100546.44
2023-05-05T12:46:01.609Z,100561.44
2023-05-05T12:50:05.175Z,100562.72
2023-05-05T12:54:08.750Z,100568.81
2023-05-05T12:58:12.987Z,100570.97
2023-05-05T13:02:16.484Z,100565.81
2023-05-05T13:06:20.587Z,100566.06
2023-05-05T13:10:25.236Z,100568.13
2023-05-05T13:14:30.685Z,100559.78
2023-05-05T13:18:33.620Z,100562.25
2023-05-05T13:22:36.511Z,100556.03
2023-05-05T13:26:40.567Z,100550.97
2023-05-05T13:30:44.917Z,100541.44
2023-05-05T13:34:48.264Z,100543.13
2023-05-05T13:38:51.110Z,100533.94
2023-05-05T13:42:54.074Z,100539.00
2023-05-05T13:46:58.342Z,100527.13
2023-05-05T13:51:01.244Z,100522.13
2023-05-05T13:55:04.223Z,100532.25
2023-05-05T13:59:07.055Z,100537.03
2023-05-05T14:03:11.410Z,100546.13
2023-05-05T14:07:14.266Z,100542.28
2023-05-05T14:11:18.186Z,100552.09
2023-05-05T14:15:21.174Z,100568.47
2023-05-05T14:19:25.480Z,100584.75
2023-05-05T14:23:28.442Z,100588.09
2023-05-05T14:27:31.623Z,100586.38
2023-05-05T14:31:34.602Z,100601.59
2023-05-05T14:35:39.289Z,100610.47
2023-05-05T14:39:42.243Z,100629.31
2023-05-05T14:43:45.123Z,100646.72
2023-05-05T14:47:48.010Z,100664.94
2023-05-05T14:51:57.483Z,100657.47
2023-05-05T14:56:02.257Z,100668.72
2023-05-05T15:00:05.771Z,100657.59
2023-05-05T15:04:08.681Z,100650.13
2023-05-05T15:08:14.529Z,100659.34
2023-05-05T15:12:17.413Z,100657.28
2023-05-05T15:16:23.318Z,100673.81
2023-05-05T15:20:26.317Z,100641.75
2023-05-05T15:24:30.545Z,100589.56
2023-05-05T15:28:33.436Z,100555.41
2023-05-05T15:32:36.381Z,100562.19
2023-05-05T15:36:41.357Z,100559.81
2023-05-05T15:40:49.567Z,100562.81
2023-05-05T15:44:53.530Z,100564.22
2023-05-05T15:48:56.474Z,100563.66
2023-05-05T15:52:59.731Z,100565.06
2023-05-05T15:57:04.085Z,100575.03
2023-05-05T16:01:06.982Z,100576.63
2023-05-05T16:05:12.882Z,100586.16
2023-05-05T16:09:15.996Z,100602.34
2023-05-05T16:13:20.298Z,100617.63
2023-05-05T16:17:23.197Z,100640.56
2023-05-05T16:21:26.112Z,100658.06
2023-05-05T16:25:31.180Z,100681.00
2023-05-05T16:29:35.434Z,100689.00
2023-05-05T16:33:40.964Z,100693.91
2023-05-05T16:37:43.937Z,100701.41
2023-05-05T16:41:46.787Z,100720.59
2023-05-05T16:45:51.696Z,100754.19
2023-05-05T16:49:54.763Z,100775.41
2023-05-05T16:53:58.169Z,100771.66
2023-05-05T16:58:01.079Z,100768.16
2023-05-05T17:02:05.468Z,100763.06
2023-05-05T17:06:08.612Z,100757.03
2023-05-05T17:10:11.757Z,100754.28
2023-05-05T17:14:14.784Z,100765.66
2023-05-05T17:18:21.126Z,100758.84
2023-05-05T17:22:24.029Z,100742.03
2023-05-05T17:26:27.200Z,100743.00
2023-05-05T17:30:30.387Z,100743.63
2023-05-05T17:34:34.632Z,100731.56
2023-05-05T17:38:38.071Z,100724.31
2023-05-05T17:42:40.983Z,100731.50
2023-05-05T17:46:43.866Z,100730.28
2023-05-05T17:50:49.212Z,100724.97
2023-05-05T17:54:52.363Z,100736.22
2023-05-05T17:58:55.277Z,100737.47
2023-05-05T18:02:58.253Z,100733.19
2023-05-05T18:07:02.592Z,100738.50
2023-05-05T18:11:05.799Z,100752.44
2023-05-05T18:15:09.438Z,100744.03
2023-05-05T18:19:12.478Z,100743.81
2023-05-05T18:23:16.826Z,100742.28
2023-05-05T18:27:19.846Z,100743.06
2023-05-05T18:31:23.073Z,100730.88
2023-05-05T18:35:26.056Z,100733.72
2023-05-05T18:39:30.430Z,100731.50
2023-05-05T18:43:33.327Z,100737.06
2023-05-05T18:47:38.126Z,100743.09
2023-05-05T18:51:41.429Z,100740.63
2023-05-05T18:55:47.489Z,100743.19
2023-05-05T18:59:50.667Z,100755.31
2023-05-05T19:03:54.898Z,100754.75
2023-05-05T19:07:57.942Z,100770.59
2023-05-05T19:12:03.216Z,100778.81
2023-05-05T19:16:06.306Z,100773.25
2023-05-05T19:20:09.897Z,100780.97
2023-05-05T19:24:12.873Z,100785.16
2023-05-05T19:28:18.695Z,100785.25
2023-05-05T19:32:21.931Z,100787.41
2023-05-05T19:36:24.840Z,100782.50
2023-05-05T19:40:28.138Z,100781.13
2023-05-05T19:44:32.373Z,100773.16
2023-05-05T19:48:35.353Z,100767.47
2023-05-05T19:52:38.720Z,100775.50
2023-05-05T19:56:41.516Z,100774.94
2023-05-05T20:00:46.259Z,100774.31
2023-05-05T20:04:49.635Z,100783.38
2023-05-05T20:08:52.989Z,100782.69
2023-05-05T20:12:55.926Z,100796.16
2023-05-05T20:17:00.345Z,100785.19
2023-05-05T20:21:03.490Z,100785.63
2023-05-05T20:25:06.712Z,100793.72
2023-05-05T20:29:09.613Z,100799.59
2023-05-05T20:33:13.977Z,100796.28
2023-05-05T20:37:17.129Z,100801.69
2023-05-05T20:41:20.082Z,100799.97
2023-05-05T20:45:22.965Z,100799.59
2023-05-05T20:49:27.208Z,100790.09
2023-05-05T20:53:30.078Z,100802.09
2023-05-05T20:57:33.065Z,100797.22
2023-05-05T21:01:36.068Z,100799.59
2023-05-05T21:05:40.993Z,100794.69
2023-05-05T21:09:46.414Z,100798.72
2023-05-05T21:13:49.529Z,100795.53
2023-05-05T21:17:52.511Z,100789.88
2023-05-05T21:21:59.324Z,100798.72
2023-05-05T21:26:03.203Z,100796.59
2023-05-05T21:30:08.618Z,100797.28
2023-05-05T21:34:13.617Z,100791.16
2023-05-05T21:38:17.811Z,100800.47
2023-05-05T21:42:20.859Z,100788.19
2023-05-05T21:46:23.791Z,100798.34
2023-05-05T21:50:27.671Z,100792.47
2023-05-05T21:54:33.632Z,100785.28
2023-05-05T21:58:36.630Z,100777.72
2023-05-05T22:02:39.508Z,100774.16
2023-05-05T22:06:42.414Z,100774.41
2023-05-05T22:11:04.938Z,100773.56
2023-05-05T22:15:08.709Z,100762.66
2023-05-05T22:19:11.827Z,100760.56
2023-05-05T22:23:16.174Z,100764.16
2023-05-05T22:27:20.564Z,100760.34
2023-05-05T22:31:23.468Z,100763.69
2023-05-05T22:35:26.409Z,100771.50
2023-05-05T22:39:29.688Z,100764.34
2023-05-05T22:43:34.347Z,100758.88
2023-05-05T22:47:37.324Z,100755.94
2023-05-05T22:51:40.329Z,100764.78
2023-05-05T22:55:43.245Z,100767.31
2023-05-05T22:59:47.495Z,100763.09
2023-05-05T23:03:50.910Z,100764.13
2023-05-05T23:07:53.985Z,100765.19
2023-05-05T23:11:56.889Z,100765.41
2023-05-05T23:16:01.313Z,100771.34
2023-05-05T23:20:04.506Z,100761.00
2023-05-05T23:24:07.564Z,100754.69
2023-05-05T23:28:11.255Z,100755.31
2023-05-05T23:32:15.802Z,100763.97
2023-05-05T23:36:18.769Z,100762.28
2023-05-05T23:40:21.803Z,100756.38
2023-05-05T23:44:24.950Z,100763.31
2023-05-05T23:48:29.236Z,100753.63
2023-05-05T23:52:32.154Z,100754.69
2023-05-05T23:56:35.255Z,100757.22
